Time;durP1;ratioP1;P1;durP2;ratioP2;P2;SDS_P1;SDS_P2;PMS_P1;PMS_P2;Temp;Humidity;BMP_temperature;BMP_pressure;BME280_temperature;BME280_humidity;BME280_pressure;Samples;Min_cycle;Max_cycle;Signal;HPM_P1;HPM_P2
2023/05/26 00:00:07;;;;;;;15.52;5.30;;;15.60;9.00;;;;;;5093741;28;20195;-55
2023/05/26 00:02:36;;;;;;;14.40;4.90;;;15.60;1.00;;;;;;5093842;28;20259;-55
2023/05/26 00:05:03;;;;;;;13.82;5.50;;;15.30;99.90;;;;;;5093946;28;20179;-55
2023/05/26 00:07:29;;;;;;;14.15;5.35;;;15.50;99.90;;;;;;5093693;28;20164;-55
2023/05/26 00:09:55;;;;;;;15.32;5.57;;;15.40;99.90;;;;;;5093651;28;20187;-55
2023/05/26 00:12:20;;;;;;;12.90;5.40;;;15.30;99.90;;;;;;5093715;28;20168;-55
2023/05/26 00:14:46;;;;;;;12.73;5.43;;;15.30;1.00;;;;;;5092186;28;20168;-55
2023/05/26 00:17:12;;;;;;;13.85;5.05;;;15.40;1.00;;;;;;5093578;28;20223;-57
2023/05/26 00:19:38;;;;;;;19.25;5.68;;;15.20;1.00;;;;;;5093499;28;20229;-56
2023/05/26 00:22:04;;;;;;;17.20;5.45;;;15.20;1.00;;;;;;5093607;28;20622;-55
2023/05/26 00:24:30;;;;;;;11.00;4.68;;;15.20;99.90;;;;;;5093547;28;20171;-57
2023/05/26 00:26:56;;;;;;;19.85;6.00;;;15.20;63.60;;;;;;5093576;28;20172;-55
2023/05/26 00:29:21;;;;;;;13.05;5.00;;;15.20;99.90;;;;;;5093326;28;20168;-55
2023/05/26 00:31:47;;;;;;;18.88;5.97;;;15.20;1.00;;;;;;5093310;28;20168;-55
2023/05/26 00:34:13;;;;;;;16.20;5.25;;;15.10;1.00;;;;;;5093443;28;20624;-55
2023/05/26 00:36:38;;;;;;;19.90;5.60;;;15.10;99.90;;;;;;5093328;28;20698;-55
2023/05/26 00:39:04;;;;;;;13.32;5.00;;;15.10;1.00;;;;;;5093269;28;20273;-55
2023/05/26 00:41:30;;;;;;;17.75;5.55;;;15.00;1.00;;;;;;5093039;28;20215;-56
2023/05/26 00:43:55;;;;;;;18.30;5.53;;;15.00;1.00;;;;;;5092977;28;20584;-54
2023/05/26 00:46:21;;;;;;;18.27;5.10;;;14.90;1.00;;;;;;5093111;28;20540;-55
2023/05/26 00:48:47;;;;;;;19.58;5.88;;;14.90;1.00;;;;;;5093033;28;20179;-55
2023/05/26 00:51:13;;;;;;;15.90;6.28;;;14.80;1.00;;;;;;5092834;28;20171;-56
2023/05/26 00:53:43;;;;;;;12.30;5.03;;;14.80;1.00;;;;;;5092919;28;20198;-55
2023/05/26 00:56:16;;;;;;;17.73;5.85;;;14.80;91.00;;;;;;5093082;28;20194;-56
2023/05/26 00:58:42;;;;;;;11.23;4.95;;;14.70;99.90;;;;;;5092839;28;20192;-56
2023/05/26 01:01:09;;;;;;;14.32;5.18;;;14.70;1.00;;;;;;5092668;28;20232;-56
2023/05/26 01:03:37;;;;;;;14.65;5.55;;;14.70;1.00;;;;;;5092585;28;20262;-56
2023/05/26 01:06:03;;;;;;;11.88;5.10;;;14.60;1.00;;;;;;5074922;28;20176;-55
2023/05/26 01:08:29;;;;;;;14.02;5.00;;;14.70;99.90;;;;;;5092565;28;20477;-55
2023/05/26 01:11:02;;;;;;;11.38;5.07;;;14.60;99.90;;;;;;5074390;28;20270;-55
2023/05/26 01:13:35;;;;;;;12.65;5.47;;;14.60;99.90;;;;;;5092404;28;20241;-55
2023/05/26 01:16:06;;;;;;;18.73;5.82;;;14.50;99.90;;;;;;5092479;28;20168;-55
2023/05/26 01:18:46;;;;;;;14.93;5.35;;;14.50;99.90;;;;;;5092494;28;20605;-55
2023/05/26 01:21:13;;;;;;;10.07;4.95;;;14.40;99.90;;;;;;5092301;28;20195;-55
2023/05/26 01:23:47;;;;;;;12.60;5.40;;;14.40;1.00;;;;;;5092177;28;20636;-55
2023/05/26 01:26:43;;;;;;;14.23;5.30;;;14.40;1.00;;;;;;5091826;28;20212;-55
2023/05/26 01:29:12;;;;;;;15.57;5.32;;;14.40;1.00;;;;;;5092174;28;20234;-55
2023/05/26 01:31:39;;;;;;;14.75;5.75;;;14.40;1.00;;;;;;5092209;28;20175;-55
2023/05/26 01:34:05;;;;;;;17.02;5.53;;;14.30;1.00;;;;;;5073930;28;20172;-56
2023/05/26 01:36:31;;;;;;;13.60;5.60;;;14.20;1.00;;;;;;5092370;28;20210;-55
2023/05/26 01:38:58;;;;;;;14.38;5.43;;;14.20;29.70;;;;;;5073717;28;20191;-56
2023/05/26 01:41:37;;;;;;;15.63;6.00;;;14.00;99.90;;;;;;5091884;28;20211;-55
2023/05/26 01:44:08;;;;;;;17.27;6.03;;;14.00;99.90;;;;;;5091625;28;20211;-55
2023/05/26 01:46:49;;;;;;;17.88;6.22;;;14.10;99.90;;;;;;5091779;28;20182;-56
2023/05/26 01:49:16;;;;;;;14.65;6.05;;;13.90;99.90;;;;;;5091950;28;20194;-55
2023/05/26 01:52:07;;;;;;;14.23;5.22;;;13.90;99.90;;;;;;5091598;28;20647;-56
2023/05/26 01:54:47;;;;;;;19.08;5.80;;;13.90;99.90;;;;;;5091750;28;20267;-54
2023/05/26 01:57:14;;;;;;;13.48;5.53;;;13.80;99.90;;;;;;5091680;28;20228;-54
2023/05/26 01:59:40;;;;;;;12.88;5.82;;;13.90;99.90;;;;;;5091641;28;20164;-54
2023/05/26 02:02:05;;;;;;;10.73;5.60;;;13.70;99.90;;;;;;5091733;28;20211;-53
2023/05/26 02:04:31;;;;;;;18.05;5.90;;;13.70;99.90;;;;;;5091585;28;20180;-54
2023/05/26 02:06:57;;;;;;;16.48;5.88;;;13.70;99.90;;;;;;5091389;28;20172;-54
2023/05/26 02:09:23;;;;;;;19.05;6.15;;;13.70;99.90;;;;;;5073371;28;20550;-54
2023/05/26 02:11:48;;;;;;;12.07;5.38;;;13.70;99.90;;;;;;5091336;28;20746;-54
2023/05/26 02:14:15;;;;;;;12.32;6.30;;;13.60;99.90;;;;;;5091395;28;20191;-55
2023/05/26 02:16:41;;;;;;;14.35;5.78;;;13.60;99.90;;;;;;5091265;28;20512;-54
2023/05/26 02:19:07;;;;;;;15.73;5.85;;;13.30;99.90;;;;;;5071716;28;20209;-54
2023/05/26 02:21:33;;;;;;;15.35;6.03;;;13.50;99.90;;;;;;5090960;28;20226;-54
2023/05/26 02:23:58;;;;;;;14.73;5.93;;;13.40;99.90;;;;;;5078482;28;20645;-55
2023/05/26 02:26:24;;;;;;;13.23;5.60;;;13.40;99.90;;;;;;5087126;28;20643;-55
2023/05/26 02:28:55;;;;;;;11.98;5.68;;;13.30;99.90;;;;;;5072578;28;20636;-55
2023/05/26 02:31:21;;;;;;;13.20;5.55;;;13.30;99.90;;;;;;5090552;28;20589;-55
2023/05/26 02:33:46;;;;;;;15.13;5.95;;;13.30;99.90;;;;;;5090550;28;20180;-55
2023/05/26 02:36:13;;;;;;;12.52;6.05;;;13.30;99.90;;;;;;5090758;28;20631;-54
2023/05/26 02:38:39;;;;;;;15.98;5.50;;;13.20;99.90;;;;;;5089917;28;20182;-55
2023/05/26 02:41:06;;;;;;;14.15;5.90;;;13.20;99.90;;;;;;5090741;28;20211;-55
2023/05/26 02:43:31;;;;;;;17.88;6.35;;;13.20;99.90;;;;;;5090545;28;20204;-55
2023/05/26 02:45:57;;;;;;;11.82;5.90;;;13.10;99.90;;;;;;5086266;28;20183;-55
2023/05/26 02:48:22;;;;;;;13.05;5.88;;;13.10;99.90;;;;;;5090942;28;20600;-55
2023/05/26 02:50:48;;;;;;;12.38;6.22;;;;;;;;;;5090690;28;20229;-55
2023/05/26 02:53:15;;;;;;;13.25;5.95;;;13.00;99.90;;;;;;5090585;28;20175;-55
2023/05/26 02:55:41;;;;;;;18.02;6.10;;;13.00;99.90;;;;;;5089855;28;20211;-55
2023/05/26 02:58:06;;;;;;;13.93;5.80;;;13.00;99.90;;;;;;5090613;28;20176;-54
2023/05/26 03:00:32;;;;;;;18.15;6.53;;;13.00;99.90;;;;;;5090479;28;20206;-55
2023/05/26 03:02:58;;;;;;;14.75;6.43;;;13.00;99.90;;;;;;5089952;28;20183;-55
2023/05/26 03:05:24;;;;;;;14.27;6.00;;;;;;;;;;5090720;28;20168;-55
2023/05/26 03:07:49;;;;;;;16.95;6.05;;;12.80;99.90;;;;;;5090264;28;20648;-54
2023/05/26 03:10:15;;;;;;;15.18;5.85;;;12.90;99.90;;;;;;5090400;28;20217;-55
2023/05/26 03:12:40;;;;;;;14.60;5.75;;;13.30;99.90;;;;;;5090732;28;20175;-55
2023/05/26 03:15:07;;;;;;;15.25;5.60;;;12.90;99.90;;;;;;5089130;28;20699;-54
2023/05/26 03:17:32;;;;;;;14.27;6.38;;;12.90;99.90;;;;;;5090743;28;20187;-54
2023/05/26 03:19:58;;;;;;;12.85;5.47;;;12.90;99.90;;;;;;5090368;28;20197;-54
2023/05/26 03:22:25;;;;;;;14.70;5.72;;;;;;;;;;5090430;28;20207;-55
2023/05/26 03:24:50;;;;;;;12.23;5.35;;;13.00;99.90;;;;;;5090013;28;20298;-54
2023/05/26 03:27:17;;;;;;;14.10;5.75;;;;;;;;;;5090309;28;20251;-54
2023/05/26 03:29:43;;;;;;;14.10;5.90;;;;;;;;;;5089826;28;20168;-54
2023/05/26 03:32:09;;;;;;;11.90;5.57;;;12.90;99.90;;;;;;5090432;28;20196;-54
2023/05/26 03:34:39;;;;;;;12.15;5.65;;;;;;;;;;5090300;28;20683;-54
2023/05/26 03:37:07;;;;;;;19.48;6.10;;;12.80;99.90;;;;;;5090380;28;20164;-53
2023/05/26 03:39:33;;;;;;;13.50;5.10;;;12.90;99.90;;;;;;5072086;28;20700;-54
2023/05/26 03:42:00;;;;;;;11.38;5.63;;;12.90;99.90;;;;;;5090293;28;20287;-54
2023/05/26 03:44:26;;;;;;;12.95;5.55;;;12.40;99.90;;;;;;5090070;28;20224;-54
2023/05/26 03:46:52;;;;;;;15.45;5.13;;;;;;;;;;5090225;28;20179;-54
2023/05/26 03:49:19;;;;;;;14.18;5.38;;;12.90;99.90;;;;;;5091410;28;20199;-54
2023/05/26 03:51:45;;;;;;;15.45;5.15;;;12.40;99.90;;;;;;5094005;28;20187;-55
2023/05/26 03:54:11;;;;;;;15.40;5.25;;;;;;;;;;5094076;28;20180;-56
2023/05/26 03:56:37;;;;;;;14.65;5.65;;;12.60;99.90;;;;;;5093935;28;20259;-55
2023/05/26 03:59:03;;;;;;;12.60;4.90;;;;;;;;;;5093899;28;20168;-55
2023/05/26 04:01:29;;;;;;;13.80;5.85;;;12.50;99.90;;;;;;5093842;28;20465;-55
2023/05/26 04:03:55;;;;;;;12.00;5.63;;;;;;;;;;5093943;28;20202;-55
2023/05/26 04:06:23;;;;;;;12.48;5.07;;;12.40;99.90;;;;;;5093771;28;20174;-55
2023/05/26 04:08:49;;;;;;;16.80;5.35;;;;;;;;;;5093882;28;20176;-54
2023/05/26 04:11:16;;;;;;;14.02;5.78;;;12.50;99.90;;;;;;5093958;28;20249;-54
2023/05/26 04:13:42;;;;;;;14.60;5.38;;;;;;;;;;5093595;28;20190;-56
2023/05/26 04:16:08;;;;;;;16.67;5.17;;;12.10;99.90;;;;;;5093727;28;20644;-54
2023/05/26 04:18:36;;;;;;;15.10;5.40;;;12.30;99.90;;;;;;5093581;28;20206;-54
2023/05/26 04:21:02;;;;;;;9.47;4.90;;;;;;;;;;5093302;28;20195;-55
2023/05/26 04:23:28;;;;;;;14.07;5.03;;;;;;;;;;5093318;28;20649;-55
2023/05/26 04:25:55;;;;;;;13.07;4.70;;;12.20;99.90;;;;;;5093430;28;20164;-55
2023/05/26 04:28:21;;;;;;;14.13;5.27;;;12.20;99.90;;;;;;5093551;28;20267;-55
2023/05/26 04:30:47;;;;;;;19.57;5.03;;;;;;;;;;5093778;28;20167;-54
2023/05/26 04:33:15;;;;;;;14.70;5.87;;;12.20;99.90;;;;;;5093146;28;20628;-55
2023/05/26 04:35:41;;;;;;;14.50;5.70;;;;;;;;;;5075411;28;20274;-55
2023/05/26 04:38:07;;;;;;;17.03;5.00;;;12.20;99.90;;;;;;5093101;28;20164;-54
2023/05/26 04:40:33;;;;;;;15.40;5.27;;;;;;;;;;5093093;28;20235;-54
2023/05/26 04:43:03;;;;;;;14.98;4.97;;;12.30;99.90;;;;;;5093025;28;20318;-54
2023/05/26 04:45:28;;;;;;;13.77;4.80;;;12.40;99.90;;;;;;5092952;28;20206;-55
2023/05/26 04:47:59;;;;;;;11.67;5.00;;;12.40;99.90;;;;;;5093031;28;20184;-54
2023/05/26 04:50:25;;;;;;;9.63;4.37;;;12.70;99.90;;;;;;5092963;28;20168;-54
2023/05/26 04:52:51;;;;;;;13.32;4.88;;;;;;;;;;5092883;28;20563;-55
2023/05/26 04:55:17;;;;;;;12.40;4.20;;;;;;;;;;5092813;28;20553;-55
2023/05/26 04:57:45;;;;;;;16.63;4.63;;;12.50;99.90;;;;;;5092785;28;20658;-55
2023/05/26 05:00:13;;;;;;;16.02;3.63;;;12.50;99.90;;;;;;5092497;28;20174;-55
2023/05/26 05:02:40;;;;;;;23.48;4.43;;;12.60;99.90;;;;;;5092234;28;20575;-55
2023/05/26 05:05:06;;;;;;;17.98;4.22;;;12.60;99.90;;;;;;5092565;28;20176;-55
2023/05/26 05:07:32;;;;;;;19.77;4.88;;;12.60;99.90;;;;;;5092588;28;20180;-55
2023/05/26 05:09:57;;;;;;;16.25;4.88;;;12.60;99.90;;;;;;5092514;28;20195;-55
2023/05/26 05:12:23;;;;;;;14.88;3.58;;;12.70;99.90;;;;;;5092469;28;20265;-55
2023/05/26 05:14:49;;;;;;;22.95;4.30;;;12.60;99.90;;;;;;5074292;28;20175;-55
2023/05/26 05:17:14;;;;;;;17.83;4.03;;;12.60;99.90;;;;;;5092463;28;20183;-54
2023/05/26 05:19:40;;;;;;;16.92;4.38;;;12.60;99.90;;;;;;5092416;28;20628;-55
2023/05/26 05:22:06;;;;;;;15.17;3.63;;;12.70;99.90;;;;;;5092103;28;20204;-52
2023/05/26 05:24:31;;;;;;;16.85;4.32;;;14.00;99.90;;;;;;5092340;28;20198;-54
2023/05/26 05:26:58;;;;;;;18.10;4.43;;;12.70;99.90;;;;;;5092314;28;20179;-55
2023/05/26 05:29:24;;;;;;;21.50;4.00;;;12.50;99.90;;;;;;5092156;28;20250;-54
2023/05/26 05:31:49;;;;;;;19.03;4.00;;;12.60;19.20;;;;;;5092101;28;20265;-54
2023/05/26 05:34:15;;;;;;;21.33;4.47;;;12.60;98.00;;;;;;5092069;28;20179;-54
2023/05/26 05:36:40;;;;;;;19.03;4.47;;;12.60;1.00;;;;;;5091843;28;20708;-54
2023/05/26 05:39:06;;;;;;;14.37;4.53;;;12.70;99.90;;;;;;5075236;28;20180;-54
2023/05/26 05:41:32;;;;;;;20.05;4.30;;;12.60;1.90;;;;;;5092002;28;20302;-54
2023/05/26 05:43:57;;;;;;;24.00;4.77;;;12.80;1.00;;;;;;5091273;28;20223;-55
2023/05/26 05:46:26;;;;;;;19.58;4.50;;;12.70;1.00;;;;;;5091419;28;20179;-56
2023/05/26 05:48:52;;;;;;;23.07;4.73;;;12.80;1.00;;;;;;5091851;28;20198;-55
2023/05/26 05:51:17;;;;;;;22.37;4.47;;;12.70;1.00;;;;;;5091781;28;20168;-55
2023/05/26 05:53:44;;;;;;;21.13;4.40;;;12.80;1.00;;;;;;5091736;28;20180;-55
2023/05/26 05:56:10;;;;;;;25.50;4.23;;;12.80;1.00;;;;;;5091675;28;20182;-55
2023/05/26 05:58:35;;;;;;;21.85;4.53;;;12.80;49.30;;;;;;5091658;28;20172;-55
2023/05/26 06:01:01;;;;;;;27.00;5.38;;;12.90;99.90;;;;;;5091398;28;20230;-56
2023/05/26 06:03:26;;;;;;;20.63;5.07;;;12.90;43.20;;;;;;5091542;28;20225;-55
2023/05/26 06:05:52;;;;;;;26.17;4.53;;;12.80;99.90;;;;;;5091582;28;20731;-55
2023/05/26 06:08:18;;;;;;;32.33;5.45;;;12.90;6.60;;;;;;5091610;28;20163;-55
2023/05/26 06:10:44;;;;;;;32.97;5.03;;;12.90;99.90;;;;;;5091372;28;20179;-55
2023/05/26 06:13:10;;;;;;;27.20;5.18;;;12.90;1.00;;;;;;5091306;28;20171;-55
2023/05/26 06:15:35;;;;;;;25.88;4.72;;;13.00;99.90;;;;;;5091125;28;20584;-55
2023/05/26 06:18:01;;;;;;;26.40;4.82;;;12.90;29.60;;;;;;5091321;28;20712;-55
2023/05/26 06:20:27;;;;;;;30.13;5.35;;;13.10;1.00;;;;;;5091259;28;20172;-55
2023/05/26 06:22:52;;;;;;;28.60;5.47;;;13.10;1.00;;;;;;5091233;28;20176;-55
2023/05/26 06:25:18;;;;;;;28.90;5.32;;;13.00;1.00;;;;;;5091166;28;20171;-55
2023/05/26 06:27:43;;;;;;;27.30;5.25;;;13.10;99.90;;;;;;5091216;28;20175;-55
2023/05/26 06:30:09;;;;;;;29.90;5.30;;;13.10;1.00;;;;;;5091031;28;20164;-57
2023/05/26 06:32:35;;;;;;;32.07;4.80;;;13.10;99.90;;;;;;5091154;28;20466;-55
2023/05/26 06:35:01;;;;;;;28.08;5.15;;;13.20;1.00;;;;;;5091090;28;20176;-55
2023/05/26 06:37:26;;;;;;;28.95;4.72;;;13.20;1.00;;;;;;5091058;28;20167;-55
2023/05/26 06:39:52;;;;;;;31.48;4.85;;;13.20;99.90;;;;;;5091003;28;20179;-55
2023/05/26 06:42:18;;;;;;;27.63;5.27;;;13.30;1.00;;;;;;5090686;28;20694;-55
2023/05/26 06:44:43;;;;;;;28.80;5.32;;;13.30;1.00;;;;;;5090672;28;20208;-56
2023/05/26 06:47:09;;;;;;;39.05;4.85;;;13.30;17.20;;;;;;5071740;28;20217;-56
2023/05/26 06:49:35;;;;;;;28.10;4.97;;;13.30;1.00;;;;;;5090661;28;20278;-55
2023/05/26 06:52:00;;;;;;;25.77;4.55;;;13.40;1.00;;;;;;5090341;28;20262;-55
2023/05/26 06:54:26;;;;;;;25.63;5.50;;;13.50;1.00;;;;;;5089937;28;20662;-56
2023/05/26 06:56:52;;;;;;;22.33;4.47;;;13.40;99.90;;;;;;5090586;28;20675;-57
2023/05/26 06:59:17;;;;;;;23.25;4.38;;;13.50;1.00;;;;;;5090606;28;20246;-55
2023/05/26 07:01:43;;;;;;;30.95;5.13;;;13.60;1.00;;;;;;5090454;28;20200;-56
2023/05/26 07:04:10;;;;;;;21.35;4.43;;;13.70;1.00;;;;;;5090678;28;20273;-55
2023/05/26 07:06:35;;;;;;;30.63;5.45;;;13.70;1.00;;;;;;5054152;28;20189;-55
2023/05/26 07:09:01;;;;;;;22.42;4.30;;;13.80;1.00;;;;;;5070529;28;20172;-56
2023/05/26 07:11:26;;;;;;;28.08;5.75;;;13.70;99.90;;;;;;5070388;28;20609;-56
2023/05/26 07:13:52;;;;;;;30.27;4.82;;;13.70;99.90;;;;;;5071724;28;20648;-56
2023/05/26 07:16:18;;;;;;;23.80;4.82;;;13.80;99.90;;;;;;5090657;28;20639;-56
2023/05/26 07:18:44;;;;;;;21.17;4.25;;;13.90;99.90;;;;;;5090610;28;20209;-56
2023/05/26 07:21:09;;;;;;;31.50;4.97;;;13.90;99.90;;;;;;5090615;28;20223;-56
2023/05/26 07:23:35;;;;;;;20.90;5.20;;;;;;;;;;5090706;28;20229;-56
2023/05/26 07:26:01;;;;;;;19.45;3.70;;;14.00;99.90;;;;;;5094665;28;20633;-56
2023/05/26 07:28:27;;;;;;;22.33;4.78;;;14.10;99.90;;;;;;5094556;28;20179;-56
2023/05/26 07:30:52;;;;;;;23.33;4.53;;;14.10;99.90;;;;;;5094503;28;20590;-55
2023/05/26 07:33:18;;;;;;;21.40;4.53;;;14.00;99.90;;;;;;5094100;28;20546;-56
2023/05/26 07:35:43;;;;;;;22.58;4.30;;;14.20;99.90;;;;;;5094503;28;20309;-55
2023/05/26 07:38:09;;;;;;;22.50;4.35;;;14.20;99.90;;;;;;5094315;28;20225;-56
2023/05/26 07:40:35;;;;;;;20.02;4.45;;;14.40;99.90;;;;;;5093203;28;20520;-56
2023/05/26 07:43:02;;;;;;;21.17;4.13;;;14.50;99.90;;;;;;5093904;28;20214;-56
2023/05/26 07:45:28;;;;;;;24.10;4.25;;;14.30;99.90;;;;;;5094060;28;20705;-55
2023/05/26 07:47:53;;;;;;;20.75;4.30;;;14.40;99.90;;;;;;5093886;28;20176;-55
2023/05/26 07:50:19;;;;;;;22.02;3.60;;;14.60;99.90;;;;;;5093791;28;20265;-55
2023/05/26 07:52:45;;;;;;;21.65;4.43;;;14.60;99.90;;;;;;5093544;28;20241;-55
2023/05/26 07:55:11;;;;;;;23.23;4.90;;;14.70;99.90;;;;;;5093345;28;20188;-55
2023/05/26 07:57:36;;;;;;;22.02;4.55;;;14.90;99.90;;;;;;5093378;28;20198;-54
2023/05/26 08:00:03;;;;;;;22.50;4.30;;;15.10;99.90;;;;;;5089528;28;20180;-55
2023/05/26 08:02:29;;;;;;;17.02;4.15;;;15.00;99.90;;;;;;5082515;28;20317;-55
2023/05/26 08:04:55;;;;;;;24.20;4.07;;;15.20;99.90;;;;;;5093409;28;20636;-55
2023/05/26 08:07:21;;;;;;;16.25;3.83;;;15.40;99.90;;;;;;5076703;28;20267;-54
2023/05/26 08:09:46;;;;;;;25.92;4.85;;;15.20;99.90;;;;;;5073571;28;20617;-55
2023/05/26 08:12:12;;;;;;;22.42;4.57;;;15.20;99.90;;;;;;5073410;28;20181;-55
2023/05/26 08:14:38;;;;;;;20.55;3.80;;;15.30;99.90;;;;;;5073402;28;20211;-55
2023/05/26 08:17:04;;;;;;;20.55;3.60;;;15.40;99.90;;;;;;5073505;28;20188;-55
2023/05/26 08:19:29;;;;;;;17.42;3.47;;;15.50;99.90;;;;;;5073435;28;20306;-55
2023/05/26 08:21:55;;;;;;;25.08;4.22;;;15.90;99.90;;;;;;5073612;28;20208;-55
2023/05/26 08:24:22;;;;;;;22.67;4.40;;;16.00;99.90;;;;;;5073285;28;20172;-55
2023/05/26 08:26:49;;;;;;;17.58;3.90;;;16.10;99.90;;;;;;5080149;28;20172;-55
2023/05/26 08:29:14;;;;;;;22.15;3.90;;;16.20;99.90;;;;;;5092753;28;20687;-54
2023/05/26 08:31:40;;;;;;;25.38;4.10;;;17.00;99.90;;;;;;5093408;28;20210;-54
2023/05/26 08:34:06;;;;;;;22.05;3.80;;;16.70;99.90;;;;;;5075190;28;20213;-54
2023/05/26 08:36:32;;;;;;;26.55;4.20;;;17.10;99.90;;;;;;5074029;28;20172;-55
2023/05/26 08:38:58;;;;;;;28.20;4.28;;;17.40;99.90;;;;;;5093215;28;20173;-54
2023/05/26 08:41:28;;;;;;;17.42;3.92;;;17.90;99.90;;;;;;5093085;28;20617;-54
2023/05/26 08:44:01;;;;;;;22.20;4.25;;;18.30;99.90;;;;;;5092848;28;20216;-57
2023/05/26 08:46:28;;;;;;;16.73;3.72;;;19.00;99.90;;;;;;5093101;28;20221;-55
2023/05/26 08:48:56;;;;;;;16.15;3.85;;;19.40;99.90;;;;;;5092939;28;20164;-56
2023/05/26 08:51:22;;;;;;;14.93;3.85;;;19.80;99.90;;;;;;5092982;28;20174;-55
2023/05/26 08:53:48;;;;;;;18.40;3.83;;;20.00;99.90;;;;;;5092837;28;20247;-55
2023/05/26 08:56:14;;;;;;;15.93;3.85;;;19.70;99.90;;;;;;5074827;28;20172;-55
2023/05/26 08:58:42;;;;;;;12.15;3.25;;;19.90;99.90;;;;;;5093049;28;20655;-55
2023/05/26 09:01:08;;;;;;;13.65;3.47;;;19.50;99.90;;;;;;5092681;28;20280;-55
2023/05/26 09:03:34;;;;;;;16.80;4.00;;;19.80;99.90;;;;;;5092656;28;20199;-55
2023/05/26 09:06:00;;;;;;;11.38;3.22;;;;;;;;;;5092719;28;20206;-55
2023/05/26 09:08:25;;;;;;;18.02;3.72;;;19.90;99.90;;;;;;5092564;28;20187;-55
2023/05/26 09:10:51;;;;;;;14.00;3.22;;;;;;;;;;5092631;28;20176;-54
2023/05/26 09:13:21;;;;;;;16.58;3.20;;;19.70;99.90;;;;;;5092556;28;20632;-55
2023/05/26 09:15:53;;;;;;;15.90;3.22;;;19.70;99.90;;;;;;5092527;28;20168;-54
2023/05/26 09:18:19;;;;;;;15.30;3.72;;;18.70;99.90;;;;;;5092369;28;20175;-55
2023/05/26 09:20:48;;;;;;;13.50;3.70;;;20.40;99.90;;;;;;5092166;28;20219;-55
2023/05/26 09:23:20;;;;;;;14.00;3.08;;;20.80;99.90;;;;;;5092276;28;20164;-55
2023/05/26 09:25:47;;;;;;;18.98;4.53;;;;;;;;;;5092449;28;20184;-55
2023/05/26 09:28:14;;;;;;;14.93;3.45;;;21.00;96.40;;;;;;5074444;28;20168;-55
2023/05/26 09:30:40;;;;;;;15.90;3.85;;;20.70;82.70;;;;;;5092377;28;20183;-55
2023/05/26 09:33:08;;;;;;;11.68;2.95;;;21.20;74.90;;;;;;5092206;28;20210;-55
2023/05/26 09:35:36;;;;;;;15.30;3.15;;;21.10;66.70;;;;;;5091355;28;20620;-55
2023/05/26 09:38:09;;;;;;;12.50;2.88;;;21.00;66.10;;;;;;5091776;28;20632;-55
2023/05/26 09:40:40;;;;;;;13.30;2.95;;;21.20;55.10;;;;;;5089424;28;20186;-55
2023/05/26 09:43:06;;;;;;;16.13;3.17;;;22.00;65.60;;;;;;5091000;28;20270;-55
2023/05/26 09:45:35;;;;;;;14.48;3.38;;;21.80;47.50;;;;;;5091696;28;20585;-55
2023/05/26 09:48:03;;;;;;;12.55;3.20;;;21.50;38.80;;;;;;5089904;28;20188;-55
2023/05/26 09:50:33;;;;;;;11.85;3.22;;;21.10;75.90;;;;;;5091763;28;20175;-55
2023/05/26 09:53:04;;;;;;;13.77;2.95;;;21.40;70.60;;;;;;5091306;28;20166;-55
2023/05/26 09:55:31;;;;;;;10.35;2.80;;;21.60;55.70;;;;;;5091868;28;20179;-55
2023/05/26 09:58:05;;;;;;;12.35;3.60;;;22.00;68.80;;;;;;5091777;28;20474;-55
2023/05/26 10:00:33;;;;;;;14.07;3.38;;;22.30;54.50;;;;;;5053405;28;20636;-55
2023/05/26 10:03:03;;;;;;;11.27;3.35;;;22.70;52.40;;;;;;5071340;28;20184;-56
2023/05/26 10:05:32;;;;;;;13.13;3.40;;;23.00;52.80;;;;;;5071549;28;20183;-55
2023/05/26 10:07:59;;;;;;;12.82;3.40;;;24.90;43.80;;;;;;5053916;28;20169;-56
2023/05/26 10:10:27;;;;;;;11.70;2.90;;;22.70;43.50;;;;;;5071245;28;20233;-55
2023/05/26 10:12:54;;;;;;;12.05;2.67;;;22.90;40.30;;;;;;5071215;28;20255;-55
2023/05/26 10:15:20;;;;;;;9.63;2.80;;;22.90;31.90;;;;;;5071303;28;20222;-55
2023/05/26 10:17:46;;;;;;;10.43;3.38;;;22.80;33.00;;;;;;5071318;28;20184;-55
2023/05/26 10:20:13;;;;;;;13.10;3.20;;;22.90;35.10;;;;;;5071237;28;20173;-55
2023/05/26 10:22:50;;;;;;;12.32;3.08;;;23.10;49.50;;;;;;5071093;28;20672;-55
2023/05/26 10:25:54;;;;;;;15.57;3.75;;;23.30;39.60;;;;;;5071045;28;20165;-55
2023/05/26 10:28:40;;;;;;;14.00;3.33;;;23.40;40.50;;;;;;5071135;28;20187;-55
2023/05/26 10:31:06;;;;;;;10.35;2.75;;;23.50;25.60;;;;;;5070992;28;20172;-55
2023/05/26 10:33:40;;;;;;;11.90;2.60;;;23.50;35.10;;;;;;5070829;28;20168;-55
2023/05/26 10:36:17;;;;;;;10.18;2.80;;;23.20;25.50;;;;;;5083262;28;20214;-55
2023/05/26 10:38:48;;;;;;;8.30;2.60;;;23.10;34.10;;;;;;5091138;28;20160;-55
2023/05/26 10:41:31;;;;;;;13.48;3.53;;;23.30;24.10;;;;;;5091040;28;20210;-56
2023/05/26 10:44:00;;;;;;;15.27;2.70;;;21.90;38.40;;;;;;5090861;28;20219;-55
2023/05/26 10:46:42;;;;;;;11.68;2.90;;;23.00;46.90;;;;;;5090914;28;20172;-56
2023/05/26 10:49:22;;;;;;;9.93;3.08;;;23.80;36.20;;;;;;5072790;28;20182;-58
2023/05/26 10:51:52;;;;;;;10.18;2.42;;;24.40;30.10;;;;;;5090953;28;20270;-55
2023/05/26 10:54:27;;;;;;;11.20;3.00;;;24.60;34.70;;;;;;5090952;28;20242;-57
2023/05/26 10:56:53;;;;;;;11.45;2.67;;;23.90;26.30;;;;;;5090734;28;20186;-56
2023/05/26 10:59:33;;;;;;;8.77;2.38;;;23.90;26.90;;;;;;5089971;28;20152;-55
2023/05/26 11:02:06;;;;;;;9.93;2.80;;;23.90;28.80;;;;;;5090793;28;20207;-55
2023/05/26 11:04:46;;;;;;;12.35;2.90;;;24.30;20.20;;;;;;5090866;28;20182;-55
2023/05/26 11:07:37;;;;;;;8.82;2.47;;;24.80;23.20;;;;;;5090720;28;20236;-55
2023/05/26 11:10:07;;;;;;;10.98;3.00;;;24.60;19.20;;;;;;5087768;28;20279;-55
2023/05/26 11:12:46;;;;;;;12.90;2.33;;;24.70;21.00;;;;;;5090896;28;20182;-55
2023/05/26 11:15:27;;;;;;;14.23;2.92;;;24.80;12.40;;;;;;5090679;28;20167;-56
2023/05/26 11:18:00;;;;;;;7.78;2.75;;;24.90;17.40;;;;;;5090653;28;20260;-55
2023/05/26 11:20:26;;;;;;;12.93;2.75;;;25.40;13.10;;;;;;5090738;28;20160;-55
2023/05/26 11:22:52;;;;;;;9.02;2.60;;;25.20;1.50;;;;;;5090488;28;20190;-55
2023/05/26 11:25:18;;;;;;;16.45;2.83;;;25.40;9.70;;;;;;5090494;28;20323;-55
2023/05/26 11:27:51;;;;;;;7.38;2.35;;;25.00;5.20;;;;;;5090660;28;20195;-55
2023/05/26 11:30:18;;;;;;;11.05;2.67;;;25.00;5.60;;;;;;5090379;28;20616;-55
2023/05/26 11:32:48;;;;;;;6.88;2.63;;;25.60;7.70;;;;;;5090482;28;20636;-55
2023/05/26 11:35:28;;;;;;;13.82;3.17;;;24.90;1.00;;;;;;5085114;28;20637;-58
2023/05/26 11:37:55;;;;;;;9.88;2.60;;;25.70;1.00;;;;;;5070275;28;20172;-55
2023/05/26 11:40:21;;;;;;;6.28;2.35;;;25.50;1.00;;;;;;5070226;28;20208;-56
2023/05/26 11:42:53;;;;;;;8.13;2.45;;;26.10;1.00;;;;;;5069902;28;20212;-56
2023/05/26 11:45:20;;;;;;;13.82;2.50;;;26.70;1.00;;;;;;5070187;28;20252;-55
2023/05/26 11:47:47;;;;;;;9.13;2.47;;;27.10;1.00;;;;;;5070149;28;20184;-55
2023/05/26 11:50:14;;;;;;;12.38;2.60;;;26.90;1.00;;;;;;5070207;28;20200;-55
2023/05/26 11:52:47;;;;;;;11.05;2.83;;;26.70;1.00;;;;;;5070178;28;20229;-55
2023/05/26 11:55:14;;;;;;;9.68;2.65;;;27.10;1.00;;;;;;5070187;28;20199;-56
2023/05/26 11:57:42;;;;;;;7.80;2.70;;;27.30;1.00;;;;;;5070232;28;20177;-56
2023/05/26 12:00:14;;;;;;;13.95;2.67;;;26.30;1.00;;;;;;5069982;28;20226;-55
2023/05/26 12:02:40;;;;;;;7.35;2.17;;;26.60;1.00;;;;;;5069996;28;20205;-56
2023/05/26 12:05:29;;;;;;;7.43;2.20;;;26.70;1.00;;;;;;5070198;28;20715;-56
2023/05/26 12:08:05;;;;;;;10.75;2.67;;;27.20;1.00;;;;;;5070077;28;20172;-55
2023/05/26 12:10:32;;;;;;;7.75;2.50;;;27.60;1.00;;;;;;5071489;28;20535;-55
2023/05/26 12:12:58;;;;;;;9.63;2.70;;;27.50;1.00;;;;;;5073582;28;20687;-56
2023/05/26 12:15:24;;;;;;;8.05;2.60;;;27.50;1.00;;;;;;5088225;28;20203;-56
2023/05/26 12:17:57;;;;;;;14.60;2.83;;;27.60;1.00;;;;;;5092952;28;20258;-56
2023/05/26 12:20:24;;;;;;;10.45;2.83;;;27.90;1.00;;;;;;5093501;28;20176;-56
2023/05/26 12:23:03;;;;;;;8.40;2.40;;;27.80;1.00;;;;;;5093539;28;20211;-56
2023/05/26 12:25:30;;;;;;;12.48;2.50;;;28.10;1.00;;;;;;5092967;28;20270;-56
2023/05/26 12:27:56;;;;;;;7.30;2.15;;;28.60;1.00;;;;;;5092665;28;20176;-55
2023/05/26 12:30:25;;;;;;;9.68;2.42;;;29.00;1.00;;;;;;5093058;28;20225;-56
2023/05/26 12:32:50;;;;;;;9.75;2.08;;;28.70;1.00;;;;;;5084966;28;20179;-56
2023/05/26 12:35:16;;;;;;;8.07;2.35;;;27.90;1.00;;;;;;5093168;28;20172;-56
2023/05/26 12:37:42;;;;;;;6.90;2.42;;;28.20;1.00;;;;;;5092896;28;20197;-55
2023/05/26 12:40:09;;;;;;;7.22;2.50;;;28.30;1.00;;;;;;5093200;28;20622;-56
2023/05/26 12:42:35;;;;;;;10.10;2.47;;;28.70;1.00;;;;;;5092871;28;20239;-56
2023/05/26 12:45:02;;;;;;;7.72;2.38;;;28.90;1.00;;;;;;5093132;28;20225;-56
2023/05/26 12:47:27;;;;;;;7.57;2.45;;;28.30;1.00;;;;;;5092855;28;20172;-56
2023/05/26 12:49:53;;;;;;;5.72;1.90;;;28.80;1.00;;;;;;5093172;28;20183;-56